Point Arena, CA (95468)

4:54 PM PDT on October 20, 2014 (GMT -0700)
MAP POINT ARENA (P059) CA PSD | Change Station
CLOSE
Current Station
Personal Weather Station
Location: Point Arena, CA
Elevation: 68 ft
Nearby Weather Stations
4.2 Earthquake: Rio Dell, California (1 day ago)  

Elev 68 ft 38.93 °N, 123.73 °W | Updated 54 minutes ago

Overcast
Overcast
65 °F
Feels Like 65 °F
N
5
Wind Variable Wind from SW
Gusts 0.0 mph

Today
High -- | Low -- °F
--% Chance of Precip.
Yesterday
High -- | Low -- °F
Precip. -- in
7:29 AM 6:28 PM
Waning Crescent, 8% visible
Pressure 29.93 in
Visibility 10.0 miles
Clouds Few 5000 ft
Mostly Cloudy 7000 ft
Overcast 8000 ft
Dew Point 57 °F
Humidity 75%
Rainfall -999.00 in
Snow Depth Not available.
UV 1 out of 12
Pollen 2.20 out of 12
Air Quality Not available.
Flu Activity Sporadic
METAR KUKI 202256Z AUTO 22010KT 10SM FEW050 BKN070 OVC080 18/09 A2994 RMK AO2 LTG DSNT W RAB35E45 SLP134 P0000 T01830089

More Conditions Fewer Conditions

Pressure 29.93 in
Visibility 10.0 miles
Clouds Few 5000 ft
Mostly Cloudy 7000 ft
Overcast 8000 ft
Dew Point 57 °F
Humidity 75%
Rainfall -999.00 in
Snow Depth Not available.
UV 1 out of 12
Pollen 2.20 out of 12
Air Quality Not available.
Flu Activity Sporadic
METAR KUKI 202256Z AUTO 22010KT 10SM FEW050 BKN070 OVC080 18/09 A2994 RMK AO2 LTG DSNT W RAB35E45 SLP134 P0000 T01830089

More Conditions Fewer Conditions

10-Day Weather Forecast

Almanac

Astronomy

Oct. 20, 2014 Rise Set
Actual Time 7:29 AM PDT 6:28 PM PDT
Civil Twilight 7:02 AM PDT 6:55 PM PDT
Nautical Twilight 6:31 AM PDT 7:26 PM PDT
Astronomical Twilight 6:00 AM PDT 7:57 PM PDT
Moon 4:24 AM PDT 4:53 PM PDT
Length of Visible Light 11h 53m
Length of Day
10h 59m
Tomorrow will be 2m 23s shorter.
Waning Crescent, 8% of the Moon is Illuminated
Today
Waning Crescent
Oct 23
New
Oct 30
First Quarter
Nov 6
Full
Nov 14
Last Quarter

Today's Extremes

State Highs State Lows

Community

WunderPhotos

Upload Photos

1,763,548 photos uploaded!

WunderBlogs® & News

By Dr. Jeff Masters
Director of Meteorology, Weather Underground
By Kari Strenfel
Meteorologist, Weather Underground
By Christopher C. Burt
Weather Historian, Weather Underground
October 20, 2014
October 20, 2014
October 20, 2014

Nearby

Snow Depth

Station Depth Elevation
CSS Lab 1 in 6900 ft
Independence Lake 0 in 8450 ft
Ward Creek #3 0 in 6750 ft
Rubicon #2 0 in 7500 ft
Hagan's Meadow 0 in 8000 ft

Earthquake Activity

City Distance Mag. Time & Date
Rio Dell, California 102 miles 4.2 7:24 AM PDT
2014-10-19
East Foothills, California 148 miles 2.6 8:16 AM PDT
2014-10-18
Minimum magnitude displayed is 2.5.

Coastal Water Temperatures

Place Temperature
Point Reyes, CA 61.0 °F
Arena Cove, CA 61.0 °F
San Francisco, CA 63.0 °F
Richmond, CA 64.9 °F

Nearby Weather Stations